createdAt,value
2022-11-27T01:48:25.024Z,18.42
2022-11-27T01:50:29.296Z,18.13
2022-11-27T01:52:42.762Z,17.85
2022-11-27T01:57:47.607Z,16.25
2022-11-27T02:00:50.854Z,18.13
2022-11-27T02:02:13.198Z,17.90
2022-11-27T02:06:34.854Z,17.45
2022-11-27T02:10:14.114Z,17.80
2022-11-27T02:12:10.740Z,19.38
2022-11-27T02:17:28.984Z,17.60
2022-11-27T02:19:20.108Z,18.25
2022-11-27T02:22:48.542Z,18.38
2022-11-27T02:24:21.985Z,20.13
2022-11-27T02:25:40.629Z,19.33
2022-11-27T02:27:17.003Z,20.50
2022-11-27T02:28:50.837Z,20.10
2022-11-27T02:30:13.649Z,19.30
2022-11-27T02:31:56.661Z,19.88
2022-11-27T02:33:11.041Z,21.40
2022-11-27T02:34:53.606Z,21.67
2022-11-27T02:36:49.867Z,20.38
2022-11-27T02:40:56.827Z,18.55
2022-11-27T02:42:29.893Z,19.95
2022-11-27T03:25:47.020Z,15.10
2022-11-27T03:27:06.085Z,16.70
2022-11-27T03:28:32.995Z,17.30
2022-11-27T03:32:05.672Z,15.77
2022-11-27T03:35:30.361Z,17.15
2022-11-27T03:40:02.122Z,15.98
2022-11-27T03:45:15.148Z,15.90
2022-11-27T03:47:16.956Z,14.65
2022-11-27T03:51:27.986Z,15.35
2022-11-27T04:07:05.803Z,12.38
2022-11-27T04:11:59.751Z,12.40
2022-11-27T04:16:42.752Z,12.90
2022-11-27T04:22:02.474Z,12.88
2022-11-27T04:23:48.428Z,13.38
2022-11-27T04:25:36.944Z,13.30
2022-11-27T04:29:22.554Z,11.85
2022-11-27T04:31:08.486Z,14.30
2022-11-27T04:32:35.083Z,15.38
2022-11-27T04:39:19.348Z,15.30
2022-11-27T04:51:40.524Z,11.25
2022-11-27T04:53:56.714Z,12.65
2022-11-27T04:58:44.871Z,13.10
2022-11-27T05:00:18.866Z,14.18
2022-11-27T05:02:38.987Z,12.85
2022-11-27T05:06:36.141Z,14.10
2022-11-27T05:08:37.997Z,13.40
2022-11-27T05:24:37.130Z,9.07
2022-11-27T05:26:04.557Z,10.75
2022-11-27T05:27:36.168Z,10.88
2022-11-27T05:28:53.007Z,10.70
2022-11-27T05:30:15.371Z,10.55
2022-11-27T05:31:38.643Z,10.68
2022-11-27T06:11:59.405Z,11.95
2022-11-27T06:15:07.926Z,11.05
2022-11-27T06:34:08.194Z,10.02
2022-11-27T06:36:46.874Z,11.27
2022-11-27T06:37:53.199Z,11.07
2022-11-27T06:39:47.556Z,11.43
2022-11-27T06:41:16.710Z,12.48
2022-11-27T06:42:28.861Z,12.18
2022-11-27T06:44:19.070Z,11.80
2022-11-27T06:46:07.245Z,12.07
2022-11-27T06:52:48.435Z,8.93
2022-11-27T06:56:14.570Z,11.60
2022-11-27T06:58:01.507Z,11.93
2022-11-27T06:59:18.595Z,12.23
2022-11-27T07:00:25.461Z,11.30
2022-11-27T07:01:32.220Z,12.85
2022-11-27T07:02:49.860Z,12.50
2022-11-27T07:04:34.371Z,11.35
2022-11-27T07:05:51.296Z,11.70
2022-11-27T07:07:09.624Z,11.77
2022-11-27T07:08:27.225Z,12.90
2022-11-27T07:09:50.756Z,13.63
2022-11-27T07:11:05.895Z,11.82
2022-11-27T07:12:10.363Z,12.88
2022-11-27T07:13:16.485Z,12.10
2022-11-27T07:14:27.233Z,13.07
2022-11-27T07:15:34.178Z,12.75
2022-11-27T07:16:42.564Z,12.43
2022-11-27T08:27:26.978Z,12.68
2022-11-27T08:29:50.125Z,12.65
2022-11-27T08:34:27.519Z,13.63
2022-11-27T08:36:02.246Z,13.80
2022-11-27T08:41:42.183Z,14.48
2022-11-27T08:45:06.315Z,14.23
2022-11-27T08:46:12.628Z,13.32
2022-11-27T08:55:40.490Z,12.13
2022-11-27T09:02:16.403Z,14.25
2022-11-27T09:05:56.464Z,12.63
2022-11-27T09:07:58.697Z,12.50
2022-11-27T09:16:05.179Z,12.50
2022-11-27T09:23:57.014Z,11.45
2022-11-27T09:25:48.557Z,11.52
2022-11-27T09:27:35.079Z,11.48
2022-11-27T09:28:45.212Z,12.07
2022-11-27T09:29:54.992Z,12.13
2022-11-27T09:31:06.507Z,12.00
2022-11-27T09:32:12.340Z,11.93
2022-11-27T09:33:22.313Z,11.07
2022-11-27T09:34:37.279Z,11.27
2022-11-27T09:35:49.323Z,11.73
2022-11-27T09:37:21.662Z,10.63
2022-11-27T09:38:29.717Z,11.75
2022-11-27T09:39:35.515Z,11.73
2022-11-27T09:40:55.528Z,12.33
2022-11-27T09:42:44.858Z,12.07
2022-11-27T09:44:09.263Z,11.50
2022-11-27T09:45:17.821Z,12.52
2022-11-27T09:46:29.834Z,12.13
2022-11-27T09:47:42.012Z,12.52
2022-11-27T09:48:50.521Z,12.13
2022-11-27T09:50:26.664Z,12.00
2022-11-27T09:51:44.084Z,11.80
2022-11-27T09:53:27.765Z,10.55
2022-11-27T09:54:50.835Z,10.98
2022-11-27T09:56:06.962Z,10.98
2022-11-27T09:57:33.404Z,11.63
2022-11-27T09:58:49.925Z,11.73
2022-11-27T10:00:11.391Z,12.35
2022-11-27T10:01:30.436Z,12.00
2022-11-27T10:02:47.394Z,12.18
2022-11-27T10:04:04.912Z,11.45
2022-11-27T10:05:18.381Z,11.98
2022-11-27T10:06:30.491Z,10.32
2022-11-27T10:08:06.922Z,11.27
2022-11-27T10:09:38.782Z,9.68
2022-11-27T10:11:03.416Z,11.07
2022-11-27T10:12:51.837Z,10.82
2022-11-27T10:19:20.910Z,10.05
2022-11-27T10:20:55.914Z,10.40
2022-11-27T10:40:05.619Z,9.95
2022-11-27T10:41:49.695Z,10.77
2022-11-27T10:43:49.643Z,11.05
2022-11-27T10:45:29.531Z,11.32
2022-11-27T10:53:33.988Z,10.55
2022-11-27T10:56:58.047Z,10.90
2022-11-27T10:58:03.613Z,11.85
2022-11-27T10:59:11.886Z,10.77
2022-11-27T11:00:28.714Z,11.52
2022-11-27T11:01:47.500Z,12.20
2022-11-27T11:03:06.901Z,12.10
2022-11-27T11:04:31.684Z,11.63
2022-11-27T11:06:18.533Z,10.95
2022-11-27T11:06:59.890Z,11.25
2022-11-27T11:08:18.633Z,10.80
2022-11-27T11:09:31.810Z,11.13
2022-11-27T11:11:13.801Z,10.85
2022-11-27T11:12:21.749Z,11.07
2022-11-27T11:13:28.283Z,11.00
2022-11-27T11:14:32.202Z,11.80
2022-11-27T11:15:36.653Z,13.60
2022-11-27T11:16:50.200Z,13.65
2022-11-27T11:17:53.602Z,14.25
2022-11-27T11:18:57.367Z,16.60
2022-11-27T11:20:01.851Z,17.30
2022-11-27T11:21:07.940Z,16.63
2022-11-27T11:22:19.033Z,16.45
2022-11-27T11:23:32.215Z,15.02
2022-11-27T11:24:40.825Z,15.52
2022-11-27T11:25:50.693Z,14.32
2022-11-27T11:27:09.933Z,13.10
2022-11-27T11:28:21.291Z,13.73
2022-11-27T11:29:33.061Z,13.38
2022-11-27T11:30:44.039Z,13.85
2022-11-27T11:31:56.840Z,14.30
2022-11-27T11:33:05.040Z,13.52
2022-11-27T11:36:14.084Z,13.43
2022-11-27T11:37:38.281Z,13.70
2022-11-27T11:38:48.725Z,13.05
2022-11-27T11:40:03.515Z,12.35
2022-11-27T11:42:40.402Z,12.98
2022-11-27T11:44:05.854Z,12.52
2022-11-27T11:45:17.744Z,12.55
2022-11-27T11:46:58.194Z,11.02
2022-11-27T11:48:25.950Z,10.43
2022-11-27T11:49:47.351Z,10.80
2022-11-27T11:51:57.174Z,11.10
2022-11-27T11:54:12.192Z,10.38
2022-11-27T11:55:27.822Z,10.00
2022-11-27T11:56:37.338Z,10.25
2022-11-27T11:57:56.095Z,10.75
2022-11-27T11:59:08.371Z,10.10
2022-11-27T12:00:18.114Z,10.98
2022-11-27T12:01:38.752Z,10.50
2022-11-27T12:02:58.724Z,10.07
2022-11-27T12:04:35.756Z,11.45
2022-11-27T12:06:00.389Z,10.02
2022-11-27T12:07:36.689Z,9.85
2022-11-27T12:09:02.637Z,9.85
2022-11-27T12:10:10.756Z,10.52
2022-11-27T12:11:20.299Z,11.10
2022-11-27T12:13:01.656Z,11.15
2022-11-27T12:14:22.538Z,12.15
2022-11-27T12:16:07.750Z,12.77
2022-11-27T12:17:11.780Z,12.63
2022-11-27T12:18:25.646Z,11.85
2022-11-27T12:20:07.022Z,12.63
2022-11-27T12:21:41.643Z,12.10
2022-11-27T12:23:26.649Z,10.93
2022-11-27T12:24:34.613Z,12.15
2022-11-27T12:25:57.007Z,13.07
2022-11-27T12:27:17.664Z,12.75
2022-11-27T12:28:39.515Z,12.95
2022-11-27T12:29:42.611Z,13.25
2022-11-27T12:31:22.056Z,12.80
2022-11-27T12:32:49.894Z,14.23
2022-11-27T12:34:06.676Z,13.57
2022-11-27T12:35:40.627Z,13.23
2022-11-27T12:37:00.991Z,14.18
2022-11-27T12:38:41.230Z,14.63
2022-11-27T12:40:29.906Z,14.95
2022-11-27T12:42:01.680Z,14.95
2022-11-27T12:43:06.964Z,15.68
2022-11-27T12:44:33.956Z,15.50
2022-11-27T12:46:12.133Z,15.45
2022-11-27T12:47:29.704Z,16.13
2022-11-27T12:48:41.063Z,14.27
2022-11-27T12:49:57.879Z,14.43
2022-11-27T12:51:07.100Z,15.52
2022-11-27T12:52:19.107Z,15.50
2022-11-27T12:54:17.569Z,15.73
2022-11-27T12:55:26.814Z,15.20
2022-11-27T12:56:41.353Z,15.63
2022-11-27T12:57:46.624Z,16.38
2022-11-27T12:59:16.227Z,15.93
2022-11-27T13:00:24.823Z,16.00
2022-11-27T13:01:34.210Z,16.90
2022-11-27T13:02:46.621Z,15.95
2022-11-27T13:04:06.861Z,15.43
2022-11-27T13:05:26.785Z,15.35
2022-11-27T13:06:33.242Z,16.58
2022-11-27T13:07:51.942Z,15.25
2022-11-27T13:09:00.137Z,15.98
2022-11-27T13:10:21.598Z,16.10
2022-11-27T13:11:39.638Z,15.63
2022-11-27T13:13:08.541Z,16.67
2022-11-27T13:14:20.370Z,15.95
2022-11-27T13:15:35.992Z,15.63
2022-11-27T13:16:47.037Z,17.90
2022-11-27T13:17:56.750Z,16.20
2022-11-27T13:19:33.948Z,16.98
2022-11-27T13:20:40.444Z,17.17
2022-11-27T13:21:47.155Z,17.55
2022-11-27T13:22:51.268Z,18.65
2022-11-27T13:23:55.320Z,18.30
2022-11-27T13:25:01.752Z,19.58
2022-11-27T13:26:12.784Z,19.92
2022-11-27T13:27:36.456Z,19.40
2022-11-27T13:29:06.073Z,19.48
2022-11-27T13:30:10.028Z,19.10
2022-11-27T13:31:22.727Z,17.83
2022-11-27T13:32:50.810Z,18.52
2022-11-27T13:34:07.941Z,18.48
2022-11-27T13:36:09.263Z,16.17
2022-11-27T13:37:31.194Z,26.80
2022-11-27T13:38:43.546Z,16.67
2022-11-27T13:40:05.490Z,17.08
2022-11-27T13:41:21.861Z,17.20
2022-11-27T13:42:30.901Z,17.13
2022-11-27T13:43:52.701Z,17.42
2022-11-27T13:45:09.381Z,17.98
2022-11-27T13:46:25.527Z,17.98
2022-11-27T13:47:52.777Z,18.52
2022-11-27T13:49:09.837Z,18.38
2022-11-27T13:54:42.051Z,15.90
2022-11-27T13:56:45.582Z,16.33
2022-11-27T13:58:14.288Z,16.85
2022-11-27T14:00:04.820Z,17.52
2022-11-27T14:01:29.729Z,16.38
2022-11-27T14:02:55.170Z,17.30
2022-11-27T14:04:15.847Z,14.30
2022-11-27T14:07:17.873Z,15.57
2022-11-27T14:08:36.692Z,16.85
2022-11-27T14:10:09.068Z,16.77
2022-11-27T14:11:44.919Z,16.25
2022-11-27T14:13:14.991Z,17.20
2022-11-27T14:27:28.807Z,16.98
2022-11-27T14:31:03.748Z,16.23
2022-11-27T14:32:25.169Z,16.65
2022-11-27T14:34:13.331Z,22.83
2022-11-27T14:37:34.979Z,22.15
2022-11-27T14:39:05.668Z,17.30
2022-11-27T14:40:28.299Z,20.05
2022-11-27T14:41:41.780Z,19.90
2022-11-27T14:43:10.637Z,17.58
2022-11-27T14:45:18.594Z,19.70
2022-11-27T14:46:26.890Z,20.70
2022-11-27T14:48:02.725Z,20.23
2022-11-27T14:49:24.465Z,25.58
2022-11-27T14:53:43.835Z,20.83
2022-11-27T14:55:20.207Z,18.55
2022-11-27T14:56:23.277Z,14.45
2022-11-27T14:57:30.707Z,17.42
2022-11-27T14:58:49.847Z,17.55
2022-11-27T15:03:30.881Z,17.13
2022-11-27T15:05:33.222Z,15.45
2022-11-27T15:11:53.845Z,16.10
2022-11-27T15:15:19.056Z,15.75
2022-11-27T15:17:39.372Z,19.23
2022-11-27T15:19:17.430Z,14.55
2022-11-27T15:20:48.263Z,16.00
2022-11-27T15:22:01.413Z,14.93
2022-11-27T15:23:34.319Z,17.63
2022-11-27T15:25:32.969Z,17.08
2022-11-27T15:26:47.144Z,17.55
2022-11-27T15:28:10.894Z,16.60
2022-11-27T15:29:43.189Z,16.73
2022-11-27T15:30:53.392Z,15.90
2022-11-27T15:31:59.628Z,18.20
2022-11-27T15:33:44.906Z,17.80
2022-11-27T15:37:40.929Z,13.95
2022-11-27T15:39:37.022Z,16.70
2022-11-27T15:41:02.103Z,17.05
2022-11-27T15:42:37.455Z,16.45
2022-11-27T15:43:55.729Z,14.60
2022-11-27T15:45:15.069Z,16.50
2022-11-27T15:46:38.176Z,16.30
2022-11-27T15:47:58.868Z,16.75
2022-11-27T15:49:13.554Z,17.73
2022-11-27T15:51:17.176Z,13.48
2022-11-27T15:52:26.807Z,13.77
2022-11-27T15:55:28.282Z,16.48
2022-11-27T15:56:51.430Z,16.20
2022-11-27T15:58:19.582Z,15.93
2022-11-27T15:59:45.030Z,13.77
2022-11-27T16:00:51.872Z,16.98
2022-11-27T16:02:03.119Z,18.33
2022-11-27T16:04:45.326Z,14.98
2022-11-27T16:06:01.207Z,13.05
2022-11-27T16:07:16.634Z,16.75
2022-11-27T16:08:41.059Z,13.30
2022-11-27T16:10:09.942Z,15.73
2022-11-27T16:11:30.539Z,14.88
2022-11-27T16:12:42.045Z,15.00
2022-11-27T16:15:12.143Z,14.15
2022-11-27T16:16:24.059Z,14.85
2022-11-27T16:17:43.195Z,15.52
2022-11-27T16:18:49.137Z,14.35
2022-11-27T16:19:59.792Z,13.50
2022-11-27T16:21:13.710Z,12.60
2022-11-27T16:22:31.588Z,13.90
2022-11-27T16:23:48.832Z,13.02
2022-11-27T16:25:00.016Z,14.63
2022-11-27T16:26:27.566Z,12.95
2022-11-27T16:27:49.157Z,11.23
2022-11-27T16:30:46.057Z,13.77
2022-11-27T16:32:14.682Z,12.75
2022-11-27T16:33:40.113Z,13.50
2022-11-27T16:34:54.543Z,12.75
2022-11-27T16:36:09.350Z,12.93
2022-11-27T16:37:18.946Z,13.60
2022-11-27T16:38:26.313Z,12.65
2022-11-27T16:39:34.620Z,13.80
2022-11-27T16:40:41.322Z,13.88
2022-11-27T16:41:46.752Z,16.45
2022-11-27T16:42:53.993Z,15.95
2022-11-27T16:44:15.099Z,14.82
2022-11-27T16:45:31.408Z,12.95
2022-11-27T16:46:45.829Z,18.33
2022-11-27T16:48:15.240Z,13.18
2022-11-27T16:49:43.196Z,12.75
2022-11-27T16:50:56.098Z,16.27
2022-11-27T16:52:05.324Z,14.73
2022-11-27T16:53:11.750Z,17.50
2022-11-27T16:54:22.624Z,13.88
2022-11-27T16:55:45.184Z,15.35
2022-11-27T16:56:50.927Z,14.02
2022-11-27T16:57:54.837Z,16.63
2022-11-27T16:59:03.045Z,16.30
2022-11-27T17:00:14.186Z,15.27
2022-11-27T17:01:30.693Z,14.60
2022-11-27T17:02:47.001Z,15.57
2022-11-27T17:04:02.057Z,15.65
2022-11-27T17:05:10.838Z,13.70
2022-11-27T17:06:29.679Z,15.18
2022-11-27T17:08:00.644Z,14.80
2022-11-27T17:09:24.710Z,14.45
2022-11-27T17:10:32.295Z,15.15
2022-11-27T17:11:36.989Z,16.00
2022-11-27T17:12:42.958Z,16.85
2022-11-27T17:13:55.586Z,15.63
2022-11-27T17:15:01.955Z,16.42
2022-11-27T17:16:11.577Z,17.38
2022-11-27T17:17:15.344Z,18.38
2022-11-27T17:18:24.908Z,15.10
2022-11-27T17:19:36.308Z,16.67
2022-11-27T17:20:42.158Z,18.02
2022-11-27T17:21:55.447Z,18.17
2022-11-27T17:23:05.525Z,16.35
2022-11-27T17:24:15.909Z,14.73
2022-11-27T17:25:25.681Z,14.50
2022-11-27T17:26:33.882Z,14.77
2022-11-27T17:27:43.143Z,16.85
2022-11-27T17:28:56.775Z,16.38
2022-11-27T17:30:01.170Z,16.40
2022-11-27T17:32:52.143Z,14.13
2022-11-27T17:34:01.946Z,14.68
2022-11-27T17:35:13.362Z,16.30
2022-11-27T17:36:24.901Z,15.70
2022-11-27T17:38:30.825Z,13.50
2022-11-27T17:39:46.528Z,13.65
2022-11-27T17:42:57.380Z,14.05
2022-11-27T17:44:09.834Z,14.55
2022-11-27T17:45:23.059Z,17.10
2022-11-27T17:46:32.581Z,15.73
2022-11-27T17:47:42.153Z,15.63
2022-11-27T17:49:29.727Z,17.35
2022-11-27T17:50:36.747Z,16.00
2022-11-27T17:52:11.165Z,16.45
2022-11-27T17:53:31.522Z,14.82
2022-11-27T17:55:01.305Z,16.05
2022-11-27T17:56:55.715Z,13.45
2022-11-27T17:58:38.150Z,15.35
2022-11-27T18:01:30.406Z,16.15
2022-11-27T18:02:40.390Z,17.02
2022-11-27T18:03:49.744Z,15.45
2022-11-27T18:05:12.692Z,16.45
2022-11-27T18:06:39.069Z,15.93
2022-11-27T18:08:15.729Z,15.93
2022-11-27T18:09:24.185Z,15.95
2022-11-27T18:10:42.713Z,17.70
2022-11-27T18:13:12.481Z,16.95
2022-11-27T18:14:24.158Z,14.70
2022-11-27T18:15:38.407Z,15.45
2022-11-27T18:17:21.638Z,16.15
2022-11-27T18:18:24.732Z,16.88
2022-11-27T18:19:33.325Z,15.43
2022-11-27T18:20:54.782Z,16.48
2022-11-27T18:22:00.814Z,15.18
2022-11-27T18:23:08.284Z,15.68
2022-11-27T18:24:23.558Z,16.23
2022-11-27T18:25:47.695Z,15.15
2022-11-27T18:28:23.270Z,15.45
2022-11-27T18:29:34.230Z,16.38
2022-11-27T18:30:38.540Z,16.33
2022-11-27T18:33:21.595Z,17.57
2022-11-27T18:34:27.843Z,17.42
2022-11-27T18:35:41.765Z,16.17
2022-11-27T18:36:54.176Z,15.32
2022-11-27T18:38:06.319Z,15.30
2022-11-27T18:39:32.791Z,15.15
2022-11-27T18:41:40.365Z,14.80
2022-11-27T18:46:41.742Z,14.52
2022-11-27T18:48:29.462Z,16.00
2022-11-27T18:51:21.770Z,14.18
2022-11-27T18:53:30.805Z,14.52
2022-11-27T18:59:31.936Z,13.40
2022-11-27T19:02:46.096Z,11.40
2022-11-27T19:09:32.067Z,13.45
2022-11-27T19:10:42.218Z,17.63
2022-11-27T19:11:47.636Z,14.75
2022-11-27T19:12:49.978Z,17.13
2022-11-27T19:14:00.718Z,16.40
2022-11-27T19:15:05.120Z,15.52
2022-11-27T19:16:16.421Z,15.45
2022-11-27T19:17:26.727Z,15.45
2022-11-27T19:18:38.904Z,15.13
2022-11-27T19:19:54.551Z,15.27
2022-11-27T19:21:11.564Z,14.43
2022-11-27T19:22:14.401Z,13.55
2022-11-27T19:23:20.540Z,14.60
2022-11-27T19:24:25.000Z,14.75
2022-11-27T19:25:39.239Z,15.18
2022-11-27T19:26:43.673Z,15.30
2022-11-27T19:27:48.965Z,16.40
2022-11-27T19:29:00.818Z,16.02
2022-11-27T19:30:03.961Z,14.10
2022-11-27T19:31:14.661Z,15.75
2022-11-27T19:32:19.956Z,15.53
2022-11-27T19:33:27.499Z,15.73
2022-11-27T19:34:33.916Z,13.63
2022-11-27T19:35:37.137Z,15.88
2022-11-27T19:36:42.303Z,15.55
2022-11-27T19:37:48.179Z,16.15
2022-11-27T19:39:01.297Z,15.93
2022-11-27T19:40:06.852Z,14.85
2022-11-27T19:41:16.087Z,15.10
2022-11-27T19:42:18.852Z,15.35
2022-11-27T19:43:21.747Z,15.38
2022-11-27T19:44:26.729Z,15.93
2022-11-27T19:45:37.535Z,17.05
2022-11-27T19:46:44.925Z,15.05
2022-11-27T19:47:52.783Z,14.63
2022-11-27T19:49:00.266Z,15.60
2022-11-27T19:50:05.082Z,16.00
2022-11-27T19:51:10.556Z,17.23
2022-11-27T19:52:20.302Z,17.00
2022-11-27T19:53:26.247Z,15.73
2022-11-27T19:54:30.453Z,15.65
2022-11-27T19:55:37.041Z,16.27
2022-11-27T19:56:44.640Z,15.32
2022-11-27T19:57:47.867Z,16.00
2022-11-27T19:58:56.565Z,16.25
2022-11-27T19:59:58.918Z,17.23
2022-11-27T20:01:13.412Z,14.27
2022-11-27T20:02:16.552Z,15.10
2022-11-27T20:03:20.443Z,16.90
2022-11-27T20:04:22.827Z,16.20
2022-11-27T20:05:26.558Z,15.73
2022-11-27T20:06:34.733Z,16.23
2022-11-27T20:07:41.697Z,17.05
2022-11-27T20:08:51.762Z,15.65
2022-11-27T20:09:58.009Z,16.70
2022-11-27T20:11:01.312Z,15.85
2022-11-27T20:12:06.193Z,16.02
2022-11-27T20:13:14.134Z,15.48
2022-11-27T20:14:24.349Z,17.52
2022-11-27T20:15:41.956Z,17.27
2022-11-27T20:16:55.604Z,16.38
2022-11-27T20:18:02.311Z,17.67
2022-11-27T20:19:06.623Z,17.42
2022-11-27T20:20:11.393Z,17.58
2022-11-27T20:21:23.103Z,15.85
2022-11-27T20:23:38.938Z,16.13
2022-11-27T20:25:11.080Z,16.27
2022-11-27T20:26:11.481Z,14.88
2022-11-27T20:27:16.279Z,15.07
2022-11-27T20:28:18.690Z,16.02
2022-11-27T20:29:23.487Z,16.40
2022-11-27T20:30:25.675Z,16.38
2022-11-27T20:31:39.534Z,17.35
2022-11-27T20:32:46.487Z,18.50
2022-11-27T20:33:48.704Z,20.20
2022-11-27T20:34:58.840Z,17.30
2022-11-27T20:36:03.827Z,16.92
2022-11-27T20:37:08.444Z,16.55
2022-11-27T20:38:11.905Z,16.70
2022-11-27T20:39:20.535Z,16.80
2022-11-27T20:41:12.622Z,16.45
2022-11-27T20:42:15.096Z,17.80
2022-11-27T20:43:18.084Z,16.05
2022-11-27T20:44:23.355Z,15.23
2022-11-27T20:45:28.422Z,17.08
2022-11-27T20:46:35.239Z,18.35
2022-11-27T20:47:38.800Z,16.23
2022-11-27T20:48:51.913Z,15.40
2022-11-27T20:49:58.063Z,15.90
2022-11-27T20:51:17.139Z,17.02
2022-11-27T20:52:19.585Z,16.33
2022-11-27T20:53:29.888Z,17.80
2022-11-27T20:54:33.193Z,17.80
2022-11-27T20:55:36.001Z,16.67
2022-11-27T20:56:38.480Z,17.08
2022-11-27T20:57:50.826Z,17.65
2022-11-27T20:58:56.508Z,19.08
2022-11-27T20:59:59.323Z,18.60
2022-11-27T21:01:16.558Z,15.93
2022-11-27T21:02:19.529Z,16.67
2022-11-27T21:03:21.824Z,17.83
2022-11-27T21:04:28.283Z,17.60
2022-11-27T21:05:36.928Z,16.83
2022-11-27T21:06:44.191Z,17.75
2022-11-27T21:07:47.433Z,16.50
2022-11-27T21:08:55.862Z,18.17
2022-11-27T21:10:01.930Z,16.85
2022-11-27T21:11:27.896Z,16.23
2022-11-27T21:12:32.063Z,17.27
2022-11-27T21:13:36.808Z,17.05
2022-11-27T21:14:43.305Z,17.67
2022-11-27T21:15:58.277Z,19.42
2022-11-27T21:17:05.244Z,18.17
2022-11-27T21:18:14.122Z,17.67
2022-11-27T21:19:30.237Z,16.65
2022-11-27T21:20:34.326Z,17.33
2022-11-27T21:21:39.716Z,16.92
2022-11-27T21:22:44.462Z,16.80
2022-11-27T21:23:49.220Z,17.88
2022-11-27T21:24:54.611Z,17.38
2022-11-27T21:25:59.401Z,17.27
2022-11-27T21:27:02.862Z,18.38
2022-11-27T21:28:11.202Z,20.90
2022-11-27T21:29:13.918Z,18.67
2022-11-27T21:30:19.266Z,20.83
2022-11-27T21:31:30.163Z,18.48
2022-11-27T21:32:41.655Z,18.17
2022-11-27T21:33:59.900Z,20.00
2022-11-27T21:35:04.851Z,19.38
2022-11-27T21:36:08.380Z,20.55
2022-11-27T21:37:13.129Z,19.67
2022-11-27T21:38:19.781Z,19.98
2022-11-27T21:39:22.385Z,20.63
2022-11-27T21:40:36.346Z,19.90
2022-11-27T21:41:44.791Z,18.92
2022-11-27T21:42:49.907Z,20.70
2022-11-27T21:43:58.714Z,20.60
2022-11-27T21:45:03.690Z,20.33
2022-11-27T21:46:22.566Z,19.90
2022-11-27T21:47:25.260Z,20.23
2022-11-27T21:48:39.192Z,19.92
2022-11-27T21:49:41.915Z,20.33
2022-11-27T21:50:49.302Z,21.90
2022-11-27T21:51:57.445Z,23.23
2022-11-27T21:53:09.864Z,19.98
2022-11-27T21:54:19.079Z,19.60
2022-11-27T21:55:25.011Z,20.40
2022-11-27T21:56:30.294Z,19.55
2022-11-27T21:57:37.714Z,19.55
2022-11-27T21:58:40.677Z,20.42
2022-11-27T21:59:43.422Z,19.88
2022-11-27T22:00:46.080Z,19.38
2022-11-27T22:01:50.645Z,19.88
2022-11-27T22:02:59.005Z,20.05
2022-11-27T22:04:02.878Z,21.20
2022-11-27T22:05:09.064Z,20.15
2022-11-27T22:06:17.655Z,18.40
2022-11-27T22:07:25.842Z,18.15
2022-11-27T22:08:30.666Z,17.58
2022-11-27T22:09:36.264Z,20.17
2022-11-27T22:10:47.533Z,21.38
2022-11-27T22:11:55.571Z,19.60
2022-11-27T22:13:03.726Z,19.02
2022-11-27T22:14:09.640Z,19.98
2022-11-27T22:15:18.434Z,20.73
2022-11-27T22:16:25.464Z,19.48
2022-11-27T22:17:30.752Z,20.63
2022-11-27T22:18:34.998Z,20.42
2022-11-27T22:19:42.733Z,19.80
2022-11-27T22:20:47.534Z,19.10
2022-11-27T22:21:52.265Z,19.10
2022-11-27T22:22:54.998Z,18.23
2022-11-27T22:24:02.013Z,18.08
2022-11-27T22:25:07.380Z,18.70
2022-11-27T22:26:14.317Z,19.17
2022-11-27T22:27:19.533Z,19.33
2022-11-27T22:28:26.388Z,18.50
2022-11-27T22:29:29.288Z,19.80
2022-11-27T22:30:34.384Z,19.38
2022-11-27T22:31:38.515Z,17.77
2022-11-27T22:32:41.382Z,18.15
2022-11-27T22:33:45.874Z,18.25
2022-11-27T22:34:51.571Z,19.50
2022-11-27T22:35:53.940Z,19.05
2022-11-27T22:36:59.100Z,18.52
2022-11-27T22:38:08.276Z,18.05
2022-11-27T22:39:16.345Z,17.85
2022-11-27T22:40:24.550Z,18.63
2022-11-27T22:41:30.470Z,17.70
2022-11-27T22:42:37.523Z,18.88
2022-11-27T22:43:42.124Z,19.45
2022-11-27T22:44:47.567Z,18.98
2022-11-27T22:45:51.287Z,18.48
2022-11-27T22:46:58.322Z,19.05
2022-11-27T22:48:06.037Z,19.15
2022-11-27T22:49:12.655Z,19.23
2022-11-27T22:50:19.091Z,19.42
2022-11-27T22:51:34.272Z,17.80
2022-11-27T22:52:46.213Z,18.83
2022-11-27T22:53:49.340Z,19.13
2022-11-27T22:54:57.871Z,16.83
2022-11-27T22:56:09.725Z,18.00
2022-11-27T22:57:15.046Z,17.75
2022-11-27T22:58:18.854Z,19.52
2022-11-27T22:59:34.539Z,17.83
2022-11-27T23:01:47.654Z,17.00
2022-11-27T23:02:58.808Z,17.77
2022-11-27T23:04:04.489Z,16.10
2022-11-27T23:05:08.745Z,17.38
2022-11-27T23:06:16.332Z,16.95
2022-11-27T23:07:25.347Z,17.88
2022-11-27T23:08:29.190Z,16.38
2022-11-27T23:09:33.573Z,17.88
2022-11-27T23:10:46.661Z,18.33
2022-11-27T23:12:00.870Z,17.88
2022-11-27T23:13:09.713Z,16.98
2022-11-27T23:15:32.195Z,17.30
2022-11-27T23:16:35.112Z,17.33
2022-11-27T23:17:39.854Z,18.17
2022-11-27T23:18:51.162Z,16.55
2022-11-27T23:19:56.698Z,17.05
2022-11-27T23:21:05.845Z,17.77
2022-11-27T23:22:14.139Z,18.80
2022-11-27T23:23:16.977Z,17.83
2022-11-27T23:24:25.352Z,18.70
2022-11-27T23:25:40.812Z,18.42
2022-11-27T23:26:54.601Z,18.27
2022-11-27T23:28:06.492Z,18.85
2022-11-27T23:29:14.844Z,17.95
2022-11-27T23:30:30.726Z,17.77
2022-11-27T23:31:41.906Z,18.42
2022-11-27T23:32:49.292Z,16.70
2022-11-27T23:34:02.828Z,16.77
2022-11-27T23:35:22.769Z,17.35
2022-11-27T23:36:33.462Z,18.20
2022-11-27T23:37:43.428Z,18.83
2022-11-27T23:39:01.084Z,18.05
2022-11-27T23:40:11.470Z,18.25
2022-11-27T23:41:26.806Z,17.40
2022-11-27T23:42:29.513Z,16.45
2022-11-27T23:43:39.166Z,17.50
2022-11-27T23:44:44.600Z,16.67
2022-11-27T23:45:47.616Z,17.88
2022-11-27T23:46:55.581Z,17.15
2022-11-27T23:48:03.505Z,18.40
2022-11-27T23:49:27.891Z,17.27
2022-11-27T23:50:32.461Z,17.73
2022-11-27T23:51:38.018Z,18.45
2022-11-27T23:52:45.222Z,18.60
2022-11-27T23:53:52.639Z,18.00
2022-11-27T23:54:58.259Z,19.02
2022-11-27T23:56:11.837Z,16.48
2022-11-27T23:57:18.221Z,17.55
2022-11-27T23:58:21.976Z,18.10
2022-11-27T23:59:26.983Z,18.65
